sensor_id;sensor_type;location;lat;lon;timestamp;P1;durP1;ratioP1;P2;durP2;ratioP2
23617;SDS011;18207;32.078;34.818;2023-12-04T00:02:23;2.13;;;1.52;;
23617;SDS011;18207;32.078;34.818;2023-12-04T00:04:55;1.42;;;1.33;;
23617;SDS011;18207;32.078;34.818;2023-12-04T00:07:25;1.30;;;1.20;;
23617;SDS011;18207;32.078;34.818;2023-12-04T00:09:56;1.60;;;1.38;;
23617;SDS011;18207;32.078;34.818;2023-12-04T00:12:26;1.60;;;1.50;;
23617;SDS011;18207;32.078;34.818;2023-12-04T00:14:55;2.10;;;1.25;;
23617;SDS011;18207;32.078;34.818;2023-12-04T00:17:25;1.70;;;1.50;;
23617;SDS011;18207;32.078;34.818;2023-12-04T00:19:58;1.52;;;1.42;;
23617;SDS011;18207;32.078;34.818;2023-12-04T00:22:28;2.47;;;1.50;;
23617;SDS011;18207;32.078;34.818;2023-12-04T00:24:58;1.40;;;1.20;;
23617;SDS011;18207;32.078;34.818;2023-12-04T00:27:28;1.25;;;1.15;;
23617;SDS011;18207;32.078;34.818;2023-12-04T00:29:57;1.40;;;1.30;;
23617;SDS011;18207;32.078;34.818;2023-12-04T00:32:27;1.52;;;1.42;;
23617;SDS011;18207;32.078;34.818;2023-12-04T00:34:59;1.55;;;1.40;;
23617;SDS011;18207;32.078;34.818;2023-12-04T00:37:29;1.38;;;1.20;;
23617;SDS011;18207;32.078;34.818;2023-12-04T00:39:59;1.55;;;1.45;;
23617;SDS011;18207;32.078;34.818;2023-12-04T00:42:29;1.30;;;1.20;;
23617;SDS011;18207;32.078;34.818;2023-12-04T00:44:59;2.40;;;1.52;;
23617;SDS011;18207;32.078;34.818;2023-12-04T00:47:30;2.28;;;1.58;;
23617;SDS011;18207;32.078;34.818;2023-12-04T00:50:02;1.50;;;1.33;;
23617;SDS011;18207;32.078;34.818;2023-12-04T00:52:33;1.83;;;1.50;;
23617;SDS011;18207;32.078;34.818;2023-12-04T00:55:03;1.60;;;1.50;;
23617;SDS011;18207;32.078;34.818;2023-12-04T00:57:36;1.88;;;1.50;;
23617;SDS011;18207;32.078;34.818;2023-12-04T01:00:07;2.28;;;1.60;;
23617;SDS011;18207;32.078;34.818;2023-12-04T01:02:38;4.30;;;1.70;;
23617;SDS011;18207;32.078;34.818;2023-12-04T01:05:10;1.80;;;1.65;;
23617;SDS011;18207;32.078;34.818;2023-12-04T01:07:40;1.50;;;1.40;;
23617;SDS011;18207;32.078;34.818;2023-12-04T01:10:10;1.55;;;1.45;;
23617;SDS011;18207;32.078;34.818;2023-12-04T01:12:39;1.90;;;1.63;;
23617;SDS011;18207;32.078;34.818;2023-12-04T01:15:12;1.83;;;1.65;;
23617;SDS011;18207;32.078;34.818;2023-12-04T01:17:41;2.00;;;1.70;;
23617;SDS011;18207;32.078;34.818;2023-12-04T01:20:14;1.70;;;1.60;;
23617;SDS011;18207;32.078;34.818;2023-12-04T01:22:43;1.95;;;1.40;;
23617;SDS011;18207;32.078;34.818;2023-12-04T01:25:13;2.30;;;1.75;;
23617;SDS011;18207;32.078;34.818;2023-12-04T01:27:43;2.22;;;1.80;;
23617;SDS011;18207;32.078;34.818;2023-12-04T01:30:13;1.85;;;1.70;;
23617;SDS011;18207;32.078;34.818;2023-12-04T01:32:45;1.67;;;1.58;;
23617;SDS011;18207;32.078;34.818;2023-12-04T01:35:17;1.65;;;1.55;;
23617;SDS011;18207;32.078;34.818;2023-12-04T01:37:47;2.20;;;2.00;;
23617;SDS011;18207;32.078;34.818;2023-12-04T01:40:16;1.95;;;1.85;;
23617;SDS011;18207;32.078;34.818;2023-12-04T01:42:46;2.20;;;1.95;;
23617;SDS011;18207;32.078;34.818;2023-12-04T01:45:16;1.63;;;1.52;;
23617;SDS011;18207;32.078;34.818;2023-12-04T01:47:46;2.00;;;1.80;;
23617;SDS011;18207;32.078;34.818;2023-12-04T01:50:18;2.60;;;2.00;;
23617;SDS011;18207;32.078;34.818;2023-12-04T01:52:49;2.08;;;1.70;;
23617;SDS011;18207;32.078;34.818;2023-12-04T01:55:20;2.03;;;1.80;;
23617;SDS011;18207;32.078;34.818;2023-12-04T01:57:50;2.40;;;1.65;;
23617;SDS011;18207;32.078;34.818;2023-12-04T02:00:23;1.88;;;1.60;;
23617;SDS011;18207;32.078;34.818;2023-12-04T02:02:53;1.83;;;1.73;;
23617;SDS011;18207;32.078;34.818;2023-12-04T02:05:26;1.88;;;1.65;;
23617;SDS011;18207;32.078;34.818;2023-12-04T02:07:56;1.88;;;1.73;;
23617;SDS011;18207;32.078;34.818;2023-12-04T02:10:27;1.80;;;1.70;;
23617;SDS011;18207;32.078;34.818;2023-12-04T02:12:57;2.10;;;1.67;;
23617;SDS011;18207;32.078;34.818;2023-12-04T02:15:27;1.83;;;1.70;;
23617;SDS011;18207;32.078;34.818;2023-12-04T02:17:57;1.90;;;1.77;;
23617;SDS011;18207;32.078;34.818;2023-12-04T02:20:32;1.88;;;1.60;;
23617;SDS011;18207;32.078;34.818;2023-12-04T02:23:06;2.00;;;1.80;;
23617;SDS011;18207;32.078;34.818;2023-12-04T02:25:37;2.15;;;1.65;;
23617;SDS011;18207;32.078;34.818;2023-12-04T02:28:07;2.08;;;1.88;;
23617;SDS011;18207;32.078;34.818;2023-12-04T02:30:44;2.00;;;1.80;;
23617;SDS011;18207;32.078;34.818;2023-12-04T02:33:17;1.58;;;1.48;;
23617;SDS011;18207;32.078;34.818;2023-12-04T02:35:53;1.80;;;1.63;;
23617;SDS011;18207;32.078;34.818;2023-12-04T02:38:26;2.30;;;1.70;;
23617;SDS011;18207;32.078;34.818;2023-12-04T02:40:59;2.40;;;1.83;;
23617;SDS011;18207;32.078;34.818;2023-12-04T02:43:28;2.13;;;1.73;;
23617;SDS011;18207;32.078;34.818;2023-12-04T02:46:00;2.10;;;1.90;;
23617;SDS011;18207;32.078;34.818;2023-12-04T02:48:30;2.28;;;2.08;;
23617;SDS011;18207;32.078;34.818;2023-12-04T02:51:00;2.47;;;1.98;;
23617;SDS011;18207;32.078;34.818;2023-12-04T02:53:30;3.53;;;1.98;;
23617;SDS011;18207;32.078;34.818;2023-12-04T02:56:02;2.78;;;2.13;;
23617;SDS011;18207;32.078;34.818;2023-12-04T02:58:32;2.03;;;1.83;;
23617;SDS011;18207;32.078;34.818;2023-12-04T03:01:02;1.90;;;1.80;;
23617;SDS011;18207;32.078;34.818;2023-12-04T03:03:32;2.58;;;1.63;;
23617;SDS011;18207;32.078;34.818;2023-12-04T03:06:02;2.35;;;1.95;;
23617;SDS011;18207;32.078;34.818;2023-12-04T03:08:32;2.00;;;1.70;;
23617;SDS011;18207;32.078;34.818;2023-12-04T03:11:04;1.90;;;1.75;;
23617;SDS011;18207;32.078;34.818;2023-12-04T03:13:35;2.03;;;1.83;;
23617;SDS011;18207;32.078;34.818;2023-12-04T03:16:05;2.03;;;1.83;;
23617;SDS011;18207;32.078;34.818;2023-12-04T03:18:42;1.90;;;1.70;;
23617;SDS011;18207;32.078;34.818;2023-12-04T03:21:13;1.95;;;1.80;;
23617;SDS011;18207;32.078;34.818;2023-12-04T03:23:42;1.95;;;1.80;;
23617;SDS011;18207;32.078;34.818;2023-12-04T03:26:14;2.55;;;1.80;;
23617;SDS011;18207;32.078;34.818;2023-12-04T03:28:43;1.77;;;1.67;;
23617;SDS011;18207;32.078;34.818;2023-12-04T03:31:13;1.70;;;1.60;;
23617;SDS011;18207;32.078;34.818;2023-12-04T03:33:43;2.33;;;1.70;;
23617;SDS011;18207;32.078;34.818;2023-12-04T03:36:12;1.80;;;1.70;;
23617;SDS011;18207;32.078;34.818;2023-12-04T03:38:42;2.30;;;1.65;;
23617;SDS011;18207;32.078;34.818;2023-12-04T03:41:17;1.70;;;1.60;;
23617;SDS011;18207;32.078;34.818;2023-12-04T03:43:46;2.72;;;1.67;;
23617;SDS011;18207;32.078;34.818;2023-12-04T03:46:16;2.03;;;1.83;;
23617;SDS011;18207;32.078;34.818;2023-12-04T03:48:50;2.08;;;1.70;;
23617;SDS011;18207;32.078;34.818;2023-12-04T03:51:20;1.52;;;1.42;;
23617;SDS011;18207;32.078;34.818;2023-12-04T03:53:50;1.70;;;1.60;;
23617;SDS011;18207;32.078;34.818;2023-12-04T03:56:21;2.70;;;1.77;;
23617;SDS011;18207;32.078;34.818;2023-12-04T03:58:51;1.90;;;1.58;;
23617;SDS011;18207;32.078;34.818;2023-12-04T04:01:21;1.70;;;1.60;;
23617;SDS011;18207;32.078;34.818;2023-12-04T04:03:51;1.65;;;1.55;;
23617;SDS011;18207;32.078;34.818;2023-12-04T04:06:20;2.50;;;1.65;;
23617;SDS011;18207;32.078;34.818;2023-12-04T04:08:51;1.80;;;1.60;;
23617;SDS011;18207;32.078;34.818;2023-12-04T04:11:22;2.67;;;1.90;;
23617;SDS011;18207;32.078;34.818;2023-12-04T04:13:52;1.75;;;1.65;;
23617;SDS011;18207;32.078;34.818;2023-12-04T04:16:22;2.30;;;1.73;;
23617;SDS011;18207;32.078;34.818;2023-12-04T04:18:51;1.92;;;1.63;;
23617;SDS011;18207;32.078;34.818;2023-12-04T04:21:21;1.80;;;1.70;;
23617;SDS011;18207;32.078;34.818;2023-12-04T04:23:51;1.75;;;1.60;;
23617;SDS011;18207;32.078;34.818;2023-12-04T04:26:23;1.77;;;1.52;;
23617;SDS011;18207;32.078;34.818;2023-12-04T04:28:53;1.77;;;1.67;;
23617;SDS011;18207;32.078;34.818;2023-12-04T04:31:23;1.77;;;1.67;;
23617;SDS011;18207;32.078;34.818;2023-12-04T04:33:53;2.00;;;1.75;;
23617;SDS011;18207;32.078;34.818;2023-12-04T04:36:23;2.17;;;1.63;;
23617;SDS011;18207;32.078;34.818;2023-12-04T04:38:53;1.58;;;1.48;;
23617;SDS011;18207;32.078;34.818;2023-12-04T04:41:25;3.85;;;1.90;;
23617;SDS011;18207;32.078;34.818;2023-12-04T04:43:54;1.90;;;1.70;;
23617;SDS011;18207;32.078;34.818;2023-12-04T04:46:24;2.33;;;1.73;;
23617;SDS011;18207;32.078;34.818;2023-12-04T04:48:55;1.90;;;1.80;;
23617;SDS011;18207;32.078;34.818;2023-12-04T04:51:25;1.92;;;1.63;;
23617;SDS011;18207;32.078;34.818;2023-12-04T04:53:56;2.58;;;1.67;;
23617;SDS011;18207;32.078;34.818;2023-12-04T04:56:28;2.17;;;1.60;;
23617;SDS011;18207;32.078;34.818;2023-12-04T04:58:59;2.38;;;1.65;;
23617;SDS011;18207;32.078;34.818;2023-12-04T05:01:29;2.00;;;1.50;;
23617;SDS011;18207;32.078;34.818;2023-12-04T05:03:59;1.60;;;1.50;;
23617;SDS011;18207;32.078;34.818;2023-12-04T05:06:29;2.50;;;1.60;;
23617;SDS011;18207;32.078;34.818;2023-12-04T05:08:59;2.80;;;1.90;;
23617;SDS011;18207;32.078;34.818;2023-12-04T05:11:31;1.63;;;1.50;;
23617;SDS011;18207;32.078;34.818;2023-12-04T05:14:00;1.63;;;1.52;;
23617;SDS011;18207;32.078;34.818;2023-12-04T05:16:30;1.95;;;1.70;;
23617;SDS011;18207;32.078;34.818;2023-12-04T05:18:59;1.75;;;1.60;;
23617;SDS011;18207;32.078;34.818;2023-12-04T05:21:29;1.80;;;1.58;;
23617;SDS011;18207;32.078;34.818;2023-12-04T05:23:59;1.83;;;1.60;;
23617;SDS011;18207;32.078;34.818;2023-12-04T05:26:28;3.67;;;1.60;;
23617;SDS011;18207;32.078;34.818;2023-12-04T05:29:01;1.63;;;1.52;;
23617;SDS011;18207;32.078;34.818;2023-12-04T05:31:30;1.80;;;1.70;;
23617;SDS011;18207;32.078;34.818;2023-12-04T05:34:00;1.77;;;1.67;;
23617;SDS011;18207;32.078;34.818;2023-12-04T05:36:30;2.53;;;1.80;;
23617;SDS011;18207;32.078;34.818;2023-12-04T05:38:59;2.30;;;1.90;;
23617;SDS011;18207;32.078;34.818;2023-12-04T05:41:29;4.00;;;1.75;;
23617;SDS011;18207;32.078;34.818;2023-12-04T05:44:00;1.92;;;1.67;;
23617;SDS011;18207;32.078;34.818;2023-12-04T05:46:29;2.70;;;1.77;;
23617;SDS011;18207;32.078;34.818;2023-12-04T05:48:59;2.00;;;1.90;;
23617;SDS011;18207;32.078;34.818;2023-12-04T05:51:29;2.72;;;1.90;;
23617;SDS011;18207;32.078;34.818;2023-12-04T05:54:01;2.08;;;1.80;;
23617;SDS011;18207;32.078;34.818;2023-12-04T05:56:33;2.88;;;1.80;;
23617;SDS011;18207;32.078;34.818;2023-12-04T05:59:02;2.03;;;1.80;;
23617;SDS011;18207;32.078;34.818;2023-12-04T06:01:32;1.60;;;1.50;;
23617;SDS011;18207;32.078;34.818;2023-12-04T06:04:01;1.80;;;1.70;;
23617;SDS011;18207;32.078;34.818;2023-12-04T06:06:31;2.17;;;1.60;;
23617;SDS011;18207;32.078;34.818;2023-12-04T06:09:01;2.15;;;1.60;;
23617;SDS011;18207;32.078;34.818;2023-12-04T06:11:30;2.42;;;1.70;;
23617;SDS011;18207;32.078;34.818;2023-12-04T06:14:02;1.67;;;1.58;;
23617;SDS011;18207;32.078;34.818;2023-12-04T06:16:32;2.67;;;1.58;;
23617;SDS011;18207;32.078;34.818;2023-12-04T06:19:01;2.50;;;1.70;;
23617;SDS011;18207;32.078;34.818;2023-12-04T06:21:31;2.75;;;1.70;;
23617;SDS011;18207;32.078;34.818;2023-12-04T06:24:01;2.20;;;1.70;;
23617;SDS011;18207;32.078;34.818;2023-12-04T06:26:35;2.88;;;2.00;;
23617;SDS011;18207;32.078;34.818;2023-12-04T06:29:10;1.70;;;1.60;;
23617;SDS011;18207;32.078;34.818;2023-12-04T06:31:41;1.77;;;1.67;;
23617;SDS011;18207;32.078;34.818;2023-12-04T06:34:11;2.20;;;1.60;;
23617;SDS011;18207;32.078;34.818;2023-12-04T06:36:42;1.52;;;1.42;;
23617;SDS011;18207;32.078;34.818;2023-12-04T06:39:12;3.22;;;1.77;;
23617;SDS011;18207;32.078;34.818;2023-12-04T06:41:47;3.58;;;1.42;;
23617;SDS011;18207;32.078;34.818;2023-12-04T06:44:18;1.60;;;1.50;;
23617;SDS011;18207;32.078;34.818;2023-12-04T06:46:48;3.13;;;1.40;;
23617;SDS011;18207;32.078;34.818;2023-12-04T06:49:20;1.55;;;1.40;;
23617;SDS011;18207;32.078;34.818;2023-12-04T06:51:51;1.90;;;1.70;;
23617;SDS011;18207;32.078;34.818;2023-12-04T06:54:21;2.22;;;1.70;;
23617;SDS011;18207;32.078;34.818;2023-12-04T06:56:53;2.17;;;1.65;;
23617;SDS011;18207;32.078;34.818;2023-12-04T06:59:23;1.55;;;1.38;;
23617;SDS011;18207;32.078;34.818;2023-12-04T07:01:52;1.75;;;1.65;;
23617;SDS011;18207;32.078;34.818;2023-12-04T07:04:22;1.77;;;1.58;;
23617;SDS011;18207;32.078;34.818;2023-12-04T07:06:51;2.80;;;1.73;;
23617;SDS011;18207;32.078;34.818;2023-12-04T07:09:21;2.40;;;1.70;;
23617;SDS011;18207;32.078;34.818;2023-12-04T07:11:51;2.40;;;1.70;;
23617;SDS011;18207;32.078;34.818;2023-12-04T07:14:22;1.67;;;1.45;;
23617;SDS011;18207;32.078;34.818;2023-12-04T07:16:52;1.60;;;1.50;;
23617;SDS011;18207;32.078;34.818;2023-12-04T07:19:21;1.95;;;1.73;;
23617;SDS011;18207;32.078;34.818;2023-12-04T07:21:51;2.05;;;1.50;;
23617;SDS011;18207;32.078;34.818;2023-12-04T07:24:21;1.80;;;1.42;;
23617;SDS011;18207;32.078;34.818;2023-12-04T07:26:55;1.30;;;1.20;;
23617;SDS011;18207;32.078;34.818;2023-12-04T07:29:25;2.30;;;2.10;;
23617;SDS011;18207;32.078;34.818;2023-12-04T07:31:55;1.92;;;1.80;;
23617;SDS011;18207;32.078;34.818;2023-12-04T07:34:25;3.20;;;2.13;;
23617;SDS011;18207;32.078;34.818;2023-12-04T07:36:55;2.30;;;2.10;;
23617;SDS011;18207;32.078;34.818;2023-12-04T07:39:25;3.33;;;2.28;;
23617;SDS011;18207;32.078;34.818;2023-12-04T07:41:57;2.10;;;1.90;;
23617;SDS011;18207;32.078;34.818;2023-12-04T07:44:38;3.22;;;1.92;;
23617;SDS011;18207;32.078;34.818;2023-12-04T07:47:08;3.28;;;2.00;;
23617;SDS011;18207;32.078;34.818;2023-12-04T07:49:38;2.03;;;1.75;;
23617;SDS011;18207;32.078;34.818;2023-12-04T07:52:09;2.42;;;2.22;;
23617;SDS011;18207;32.078;34.818;2023-12-04T07:54:39;2.28;;;1.73;;
23617;SDS011;18207;32.078;34.818;2023-12-04T07:57:11;1.75;;;1.65;;
23617;SDS011;18207;32.078;34.818;2023-12-04T07:59:41;1.98;;;1.80;;
23617;SDS011;18207;32.078;34.818;2023-12-04T08:02:10;2.72;;;1.77;;
23617;SDS011;18207;32.078;34.818;2023-12-04T08:04:40;3.50;;;1.92;;
23617;SDS011;18207;32.078;34.818;2023-12-04T08:07:10;2.00;;;1.77;;
23617;SDS011;18207;32.078;34.818;2023-12-04T08:09:40;3.42;;;1.80;;
23617;SDS011;18207;32.078;34.818;2023-12-04T08:12:11;2.50;;;1.70;;
23617;SDS011;18207;32.078;34.818;2023-12-04T08:14:41;2.05;;;1.83;;
23617;SDS011;18207;32.078;34.818;2023-12-04T08:17:10;1.63;;;1.52;;
23617;SDS011;18207;32.078;34.818;2023-12-04T08:19:40;2.30;;;1.70;;
23617;SDS011;18207;32.078;34.818;2023-12-04T08:22:10;3.33;;;1.58;;
23617;SDS011;18207;32.078;34.818;2023-12-04T08:24:39;2.05;;;1.65;;
23617;SDS011;18207;32.078;34.818;2023-12-04T08:27:11;2.30;;;1.60;;
23617;SDS011;18207;32.078;34.818;2023-12-04T08:29:40;1.75;;;1.48;;
23617;SDS011;18207;32.078;34.818;2023-12-04T08:32:10;3.05;;;1.77;;
23617;SDS011;18207;32.078;34.818;2023-12-04T08:34:39;3.50;;;1.73;;
23617;SDS011;18207;32.078;34.818;2023-12-04T08:37:09;4.15;;;1.77;;
23617;SDS011;18207;32.078;34.818;2023-12-04T08:39:39;4.40;;;2.03;;
23617;SDS011;18207;32.078;34.818;2023-12-04T08:42:10;2.80;;;1.90;;
23617;SDS011;18207;32.078;34.818;2023-12-04T08:44:49;3.15;;;1.60;;
23617;SDS011;18207;32.078;34.818;2023-12-04T08:47:18;1.92;;;1.70;;
23617;SDS011;18207;32.078;34.818;2023-12-04T08:49:48;3.03;;;1.60;;
23617;SDS011;18207;32.078;34.818;2023-12-04T08:52:18;2.83;;;1.65;;
23617;SDS011;18207;32.078;34.818;2023-12-04T08:54:47;2.92;;;1.73;;
23617;SDS011;18207;32.078;34.818;2023-12-04T08:57:19;2.50;;;1.70;;
23617;SDS011;18207;32.078;34.818;2023-12-04T08:59:49;2.03;;;1.80;;
23617;SDS011;18207;32.078;34.818;2023-12-04T09:02:18;2.00;;;1.50;;
23617;SDS011;18207;32.078;34.818;2023-12-04T09:04:48;2.50;;;1.60;;
23617;SDS011;18207;32.078;34.818;2023-12-04T09:07:18;9.18;;;1.80;;
23617;SDS011;18207;32.078;34.818;2023-12-04T09:09:51;4.10;;;1.63;;
23617;SDS011;18207;32.078;34.818;2023-12-04T09:12:21;4.57;;;2.47;;
23617;SDS011;18207;32.078;34.818;2023-12-04T09:14:51;3.95;;;2.58;;
23617;SDS011;18207;32.078;34.818;2023-12-04T09:17:20;3.95;;;3.17;;
23617;SDS011;18207;32.078;34.818;2023-12-04T09:19:53;4.50;;;3.90;;
23617;SDS011;18207;32.078;34.818;2023-12-04T09:22:23;7.78;;;4.30;;
23617;SDS011;18207;32.078;34.818;2023-12-04T09:24:59;7.13;;;3.90;;
23617;SDS011;18207;32.078;34.818;2023-12-04T09:27:30;6.30;;;4.95;;
23617;SDS011;18207;32.078;34.818;2023-12-04T09:30:00;7.28;;;4.85;;
23617;SDS011;18207;32.078;34.818;2023-12-04T09:32:31;8.57;;;5.18;;
23617;SDS011;18207;32.078;34.818;2023-12-04T09:35:00;5.80;;;4.88;;
23617;SDS011;18207;32.078;34.818;2023-12-04T09:37:30;3.70;;;3.40;;
23617;SDS011;18207;32.078;34.818;2023-12-04T09:40:01;4.32;;;3.50;;
23617;SDS011;18207;32.078;34.818;2023-12-04T09:42:34;5.20;;;3.55;;
23617;SDS011;18207;32.078;34.818;2023-12-04T09:45:04;3.85;;;3.20;;
23617;SDS011;18207;32.078;34.818;2023-12-04T09:47:37;2.90;;;2.70;;
23617;SDS011;18207;32.078;34.818;2023-12-04T09:50:07;4.13;;;2.75;;
23617;SDS011;18207;32.078;34.818;2023-12-04T09:52:38;2.60;;;2.40;;
23617;SDS011;18207;32.078;34.818;2023-12-04T09:55:08;3.80;;;3.05;;
23617;SDS011;18207;32.078;34.818;2023-12-04T09:57:39;3.28;;;2.70;;
23617;SDS011;18207;32.078;34.818;2023-12-04T10:00:10;2.65;;;2.45;;
23617;SDS011;18207;32.078;34.818;2023-12-04T10:02:42;3.03;;;2.70;;
23617;SDS011;18207;32.078;34.818;2023-12-04T10:05:12;2.75;;;2.47;;
23617;SDS011;18207;32.078;34.818;2023-12-04T10:07:42;2.80;;;2.42;;
23617;SDS011;18207;32.078;34.818;2023-12-04T10:10:12;2.90;;;2.25;;
23617;SDS011;18207;32.078;34.818;2023-12-04T10:12:46;2.70;;;2.45;;
23617;SDS011;18207;32.078;34.818;2023-12-04T10:15:24;2.97;;;2.38;;
23617;SDS011;18207;32.078;34.818;2023-12-04T10:17:54;2.30;;;2.10;;
23617;SDS011;18207;32.078;34.818;2023-12-04T10:20:23;5.53;;;2.22;;
23617;SDS011;18207;32.078;34.818;2023-12-04T10:22:55;3.00;;;2.20;;
23617;SDS011;18207;32.078;34.818;2023-12-04T10:25:26;3.90;;;2.72;;
23617;SDS011;18207;32.078;34.818;2023-12-04T10:28:08;3.40;;;2.28;;
23617;SDS011;18207;32.078;34.818;2023-12-04T10:30:42;2.60;;;2.40;;
23617;SDS011;18207;32.078;34.818;2023-12-04T10:33:13;3.03;;;2.30;;
23617;SDS011;18207;32.078;34.818;2023-12-04T10:35:43;3.50;;;2.28;;
23617;SDS011;18207;32.078;34.818;2023-12-04T10:38:14;2.50;;;2.13;;
23617;SDS011;18207;32.078;34.818;2023-12-04T10:40:44;2.28;;;2.08;;
23617;SDS011;18207;32.078;34.818;2023-12-04T10:43:19;2.67;;;2.08;;
23617;SDS011;18207;32.078;34.818;2023-12-04T10:45:50;2.50;;;2.13;;
23617;SDS011;18207;32.078;34.818;2023-12-04T10:48:21;2.70;;;2.10;;
23617;SDS011;18207;32.078;34.818;2023-12-04T10:50:52;2.10;;;1.85;;
23617;SDS011;18207;32.078;34.818;2023-12-04T10:53:25;2.42;;;1.98;;
23617;SDS011;18207;32.078;34.818;2023-12-04T10:55:54;2.13;;;1.95;;
23617;SDS011;18207;32.078;34.818;2023-12-04T10:58:31;2.55;;;2.10;;
23617;SDS011;18207;32.078;34.818;2023-12-04T11:01:04;2.55;;;2.13;;
23617;SDS011;18207;32.078;34.818;2023-12-04T11:03:40;2.40;;;1.92;;
23617;SDS011;18207;32.078;34.818;2023-12-04T11:06:16;2.22;;;1.80;;
23617;SDS011;18207;32.078;34.818;2023-12-04T11:08:50;4.30;;;2.00;;
23617;SDS011;18207;32.078;34.818;2023-12-04T11:11:26;3.03;;;2.22;;
23617;SDS011;18207;32.078;34.818;2023-12-04T11:14:04;2.30;;;2.10;;
23617;SDS011;18207;32.078;34.818;2023-12-04T11:16:38;2.53;;;2.30;;
23617;SDS011;18207;32.078;34.818;2023-12-04T11:19:17;2.75;;;2.30;;
23617;SDS011;18207;32.078;34.818;2023-12-04T11:21:57;3.47;;;2.28;;
23617;SDS011;18207;32.078;34.818;2023-12-04T11:24:27;1.85;;;1.75;;
23617;SDS011;18207;32.078;34.818;2023-12-04T11:26:57;2.30;;;2.10;;
23617;SDS011;18207;32.078;34.818;2023-12-04T11:29:29;2.85;;;2.30;;
23617;SDS011;18207;32.078;34.818;2023-12-04T11:32:00;2.20;;;2.00;;
23617;SDS011;18207;32.078;34.818;2023-12-04T11:34:35;2.17;;;1.98;;
23617;SDS011;18207;32.078;34.818;2023-12-04T11:37:04;2.28;;;2.08;;
23617;SDS011;18207;32.078;34.818;2023-12-04T11:39:34;1.75;;;1.65;;
23617;SDS011;18207;32.078;34.818;2023-12-04T11:42:05;1.85;;;1.75;;
23617;SDS011;18207;32.078;34.818;2023-12-04T11:44:40;2.88;;;2.33;;
23617;SDS011;18207;32.078;34.818;2023-12-04T11:47:10;2.28;;;1.80;;
23617;SDS011;18207;32.078;34.818;2023-12-04T11:49:40;1.88;;;1.77;;
23617;SDS011;18207;32.078;34.818;2023-12-04T11:52:10;4.55;;;2.30;;
23617;SDS011;18207;32.078;34.818;2023-12-04T11:54:58;2.17;;;1.98;;
23617;SDS011;18207;32.078;34.818;2023-12-04T11:57:34;1.98;;;1.88;;
23617;SDS011;18207;32.078;34.818;2023-12-04T12:00:18;1.80;;;1.70;;
23617;SDS011;18207;32.078;34.818;2023-12-04T12:03:01;2.05;;;1.80;;
23617;SDS011;18207;32.078;34.818;2023-12-04T12:05:48;1.60;;;1.50;;
23617;SDS011;18207;32.078;34.818;2023-12-04T12:08:20;2.38;;;1.80;;
23617;SDS011;18207;32.078;34.818;2023-12-04T12:10:52;2.03;;;1.80;;
23617;SDS011;18207;32.078;34.818;2023-12-04T12:13:22;1.90;;;1.80;;
23617;SDS011;18207;32.078;34.818;2023-12-04T12:15:56;2.03;;;1.80;;
23617;SDS011;18207;32.078;34.818;2023-12-04T12:18:26;1.85;;;1.75;;
23617;SDS011;18207;32.078;34.818;2023-12-04T12:20:56;1.98;;;1.77;;
23617;SDS011;18207;32.078;34.818;2023-12-04T12:23:27;2.00;;;1.88;;
23617;SDS011;18207;32.078;34.818;2023-12-04T12:25:58;2.10;;;1.90;;
23617;SDS011;18207;32.078;34.818;2023-12-04T12:28:28;2.10;;;1.73;;
23617;SDS011;18207;32.078;34.818;2023-12-04T12:31:03;1.90;;;1.80;;
23617;SDS011;18207;32.078;34.818;2023-12-04T12:33:33;2.20;;;2.00;;
23617;SDS011;18207;32.078;34.818;2023-12-04T12:36:02;1.75;;;1.65;;
23617;SDS011;18207;32.078;34.818;2023-12-04T12:38:33;2.58;;;1.88;;
23617;SDS011;18207;32.078;34.818;2023-12-04T12:41:05;2.17;;;1.88;;
23617;SDS011;18207;32.078;34.818;2023-12-04T12:43:37;1.95;;;1.85;;
23617;SDS011;18207;32.078;34.818;2023-12-04T12:46:09;2.22;;;1.98;;
23617;SDS011;18207;32.078;34.818;2023-12-04T12:48:39;3.75;;;1.98;;
23617;SDS011;18207;32.078;34.818;2023-12-04T12:51:11;2.10;;;1.90;;
23617;SDS011;18207;32.078;34.818;2023-12-04T12:53:43;2.17;;;1.98;;
23617;SDS011;18207;32.078;34.818;2023-12-04T12:56:18;2.10;;;2.00;;
23617;SDS011;18207;32.078;34.818;2023-12-04T12:58:48;2.10;;;1.90;;
23617;SDS011;18207;32.078;34.818;2023-12-04T13:01:20;1.90;;;1.80;;
23617;SDS011;18207;32.078;34.818;2023-12-04T13:03:53;2.30;;;1.98;;
23617;SDS011;18207;32.078;34.818;2023-12-04T13:06:26;2.30;;;2.05;;
23617;SDS011;18207;32.078;34.818;2023-12-04T13:08:58;2.65;;;1.90;;
23617;SDS011;18207;32.078;34.818;2023-12-04T13:11:27;3.80;;;2.00;;
23617;SDS011;18207;32.078;34.818;2023-12-04T13:13:57;2.33;;;2.13;;
23617;SDS011;18207;32.078;34.818;2023-12-04T13:16:28;2.50;;;2.30;;
23617;SDS011;18207;32.078;34.818;2023-12-04T13:18:58;2.30;;;2.08;;
23617;SDS011;18207;32.078;34.818;2023-12-04T13:21:28;2.38;;;2.17;;
23617;SDS011;18207;32.078;34.818;2023-12-04T13:23:58;2.38;;;2.10;;
23617;SDS011;18207;32.078;34.818;2023-12-04T13:26:27;2.20;;;2.00;;
23617;SDS011;18207;32.078;34.818;2023-12-04T13:28:58;3.15;;;2.20;;
23617;SDS011;18207;32.078;34.818;2023-12-04T13:31:29;2.03;;;1.85;;
23617;SDS011;18207;32.078;34.818;2023-12-04T13:33:59;2.10;;;1.90;;
23617;SDS011;18207;32.078;34.818;2023-12-04T13:36:30;2.00;;;1.90;;
23617;SDS011;18207;32.078;34.818;2023-12-04T13:39:03;2.63;;;2.10;;
23617;SDS011;18207;32.078;34.818;2023-12-04T13:41:43;2.03;;;1.85;;
23617;SDS011;18207;32.078;34.818;2023-12-04T13:44:31;2.22;;;2.03;;
23617;SDS011;18207;32.078;34.818;2023-12-04T13:47:03;2.22;;;2.03;;
23617;SDS011;18207;32.078;34.818;2023-12-04T13:49:33;2.45;;;2.25;;
23617;SDS011;18207;32.078;34.818;2023-12-04T13:52:03;1.92;;;1.83;;
23617;SDS011;18207;32.078;34.818;2023-12-04T13:54:35;2.60;;;2.10;;
23617;SDS011;18207;32.078;34.818;2023-12-04T13:57:11;2.22;;;2.03;;
23617;SDS011;18207;32.078;34.818;2023-12-04T13:59:46;2.30;;;1.98;;
23617;SDS011;18207;32.078;34.818;2023-12-04T14:02:17;2.20;;;2.00;;
23617;SDS011;18207;32.078;34.818;2023-12-04T14:04:47;1.90;;;1.70;;
23617;SDS011;18207;32.078;34.818;2023-12-04T14:07:17;2.15;;;1.88;;
23617;SDS011;18207;32.078;34.818;2023-12-04T14:09:47;2.00;;;1.80;;
23617;SDS011;18207;32.078;34.818;2023-12-04T14:12:17;2.00;;;1.80;;
23617;SDS011;18207;32.078;34.818;2023-12-04T14:14:47;2.15;;;1.90;;
23617;SDS011;18207;32.078;34.818;2023-12-04T14:17:18;1.80;;;1.70;;
23617;SDS011;18207;32.078;34.818;2023-12-04T14:19:48;1.90;;;1.80;;
23617;SDS011;18207;32.078;34.818;2023-12-04T14:22:17;2.53;;;1.90;;
23617;SDS011;18207;32.078;34.818;2023-12-04T14:24:47;2.03;;;1.83;;
23617;SDS011;18207;32.078;34.818;2023-12-04T14:27:16;3.90;;;2.25;;
23617;SDS011;18207;32.078;34.818;2023-12-04T14:29:46;3.75;;;2.35;;
23617;SDS011;18207;32.078;34.818;2023-12-04T14:32:16;2.30;;;2.10;;
23617;SDS011;18207;32.078;34.818;2023-12-04T14:34:52;3.13;;;2.22;;
23617;SDS011;18207;32.078;34.818;2023-12-04T14:37:22;2.60;;;2.28;;
23617;SDS011;18207;32.078;34.818;2023-12-04T14:39:52;2.40;;;2.20;;
23617;SDS011;18207;32.078;34.818;2023-12-04T14:42:22;2.42;;;2.22;;
23617;SDS011;18207;32.078;34.818;2023-12-04T14:44:51;2.83;;;2.22;;
23617;SDS011;18207;32.078;34.818;2023-12-04T14:47:22;2.88;;;2.30;;
23617;SDS011;18207;32.078;34.818;2023-12-04T14:49:51;2.22;;;2.03;;
23617;SDS011;18207;32.078;34.818;2023-12-04T14:52:22;3.03;;;2.42;;
23617;SDS011;18207;32.078;34.818;2023-12-04T14:54:55;2.63;;;2.42;;
23617;SDS011;18207;32.078;34.818;2023-12-04T14:57:51;3.25;;;2.17;;